createdAt,value
2023-05-19T00:01:38.117Z,8.50
2023-05-19T00:05:45.616Z,8.40
2023-05-19T00:09:48.086Z,7.90
2023-05-19T00:13:51.428Z,8.00
2023-05-19T00:17:55.647Z,8.10
2023-05-19T00:21:58.048Z,7.80
2023-05-19T00:25:59.726Z,7.80
2023-05-19T00:30:01.447Z,8.10
2023-05-19T00:34:06.636Z,7.90
2023-05-19T00:38:08.504Z,8.00
2023-05-19T00:42:10.281Z,7.90
2023-05-19T00:46:12.296Z,7.80
2023-05-19T00:50:14.030Z,7.50
2023-05-19T00:54:16.613Z,7.60
2023-05-19T00:58:19.245Z,7.80
2023-05-19T01:02:21.630Z,7.60
2023-05-19T01:06:23.455Z,7.50
2023-05-19T01:10:25.142Z,7.50
2023-05-19T01:14:27.364Z,7.40
2023-05-19T01:18:44.780Z,7.50
2023-05-19T01:23:16.676Z,7.50
2023-05-19T01:27:48.139Z,7.70
2023-05-19T01:31:50.818Z,7.90
2023-05-19T01:35:54.073Z,7.80
2023-05-19T01:39:56.087Z,7.50
2023-05-19T01:43:58.368Z,7.30
2023-05-19T01:48:03.030Z,7.20
2023-05-19T01:52:05.177Z,7.40
2023-05-19T01:56:07.675Z,7.20
2023-05-19T02:00:09.440Z,7.10
2023-05-19T02:04:41.392Z,7.00
2023-05-19T02:09:04.197Z,7.10
2023-05-19T02:13:09.004Z,7.10
2023-05-19T02:17:13.117Z,6.80
2023-05-19T02:21:14.868Z,6.70
2023-05-19T02:25:16.684Z,6.70
2023-05-19T02:29:18.811Z,6.60
2023-05-19T02:33:20.611Z,6.90
2023-05-19T02:37:23.841Z,6.70
2023-05-19T02:41:25.944Z,6.70
2023-05-19T02:45:28.747Z,6.60
2023-05-19T02:49:36.079Z,6.50
2023-05-19T02:53:37.921Z,6.40
2023-05-19T02:57:39.633Z,6.70
2023-05-19T03:01:41.414Z,6.70
2023-05-19T03:05:44.006Z,6.10
2023-05-19T03:09:46.298Z,5.90
2023-05-19T03:13:48.030Z,6.10
2023-05-19T03:17:49.984Z,6.50
2023-05-19T03:21:52.584Z,6.60
2023-05-19T03:25:55.954Z,6.60
2023-05-19T03:29:57.688Z,6.30
2023-05-19T03:33:59.505Z,6.10
2023-05-19T03:38:01.372Z,6.40
2023-05-19T03:42:03.220Z,6.60
2023-05-19T03:46:05.232Z,6.50
2023-05-19T03:50:07.442Z,6.50
2023-05-19T03:54:09.260Z,6.30
2023-05-19T03:58:10.982Z,6.10
2023-05-19T04:02:12.785Z,6.00
2023-05-19T04:06:14.644Z,6.10
2023-05-19T04:10:16.422Z,6.10
2023-05-19T04:14:19.700Z,6.10
2023-05-19T04:18:21.450Z,5.60
2023-05-19T04:22:23.227Z,6.00
2023-05-19T04:26:26.388Z,6.10
2023-05-19T04:30:28.622Z,6.20
2023-05-19T04:34:30.732Z,6.30
2023-05-19T04:38:33.399Z,6.30
2023-05-19T04:42:35.222Z,6.30
2023-05-19T04:46:37.011Z,6.50
2023-05-19T04:50:42.215Z,6.70
2023-05-19T04:54:44.291Z,6.90
2023-05-19T04:58:46.117Z,7.20
2023-05-19T05:02:49.060Z,7.40
2023-05-19T05:06:50.992Z,7.60
2023-05-19T05:10:53.502Z,7.90
2023-05-19T05:14:55.662Z,7.90
2023-05-19T05:18:57.879Z,8.50
2023-05-19T05:22:59.919Z,8.70
2023-05-19T05:27:01.726Z,8.60
2023-05-19T05:31:03.514Z,8.80
2023-05-19T05:35:05.974Z,9.30
2023-05-19T05:39:08.228Z,9.40
2023-05-19T05:43:10.075Z,9.30
2023-05-19T05:47:12.439Z,9.30
2023-05-19T05:51:14.445Z,9.60
2023-05-19T05:55:17.787Z,9.50
2023-05-19T05:59:20.394Z,9.80
2023-05-19T06:03:24.546Z,10.00
2023-05-19T06:07:26.463Z,10.40
2023-05-19T06:11:28.816Z,10.20
2023-05-19T06:15:30.660Z,10.80
2023-05-19T06:19:32.770Z,10.70
2023-05-19T06:23:34.593Z,10.60
2023-05-19T06:27:36.494Z,11.30
2023-05-19T06:31:38.248Z,11.50
2023-05-19T06:35:40.001Z,11.40
2023-05-19T06:39:41.739Z,12.00
2023-05-19T06:43:43.854Z,12.10
2023-05-19T06:47:45.808Z,11.70
2023-05-19T06:51:47.841Z,11.90
2023-05-19T06:55:59.486Z,11.60
2023-05-19T07:00:02.052Z,11.90
2023-05-19T07:04:04.155Z,12.30
2023-05-19T07:08:07.011Z,12.50
2023-05-19T07:12:08.747Z,12.10
2023-05-19T07:16:10.780Z,12.50
2023-05-19T07:20:12.850Z,13.20
2023-05-19T07:24:14.681Z,13.00
2023-05-19T07:28:16.514Z,13.00
2023-05-19T07:32:18.726Z,13.30
2023-05-19T07:36:20.869Z,13.30
2023-05-19T07:40:22.719Z,13.90
2023-05-19T07:44:24.517Z,13.50
2023-05-19T07:48:26.287Z,13.40
2023-05-19T07:52:28.066Z,13.30
2023-05-19T07:56:29.956Z,13.60
2023-05-19T08:00:31.980Z,13.30
2023-05-19T08:04:34.013Z,13.70
2023-05-19T08:08:35.787Z,13.40
2023-05-19T08:12:37.554Z,13.40
2023-05-19T08:16:41.472Z,14.00
2023-05-19T08:20:43.237Z,13.50
2023-05-19T08:24:45.103Z,13.90
2023-05-19T08:28:46.870Z,13.80
2023-05-19T08:32:49.062Z,14.60
2023-05-19T08:36:51.016Z,14.10
2023-05-19T08:40:53.049Z,14.50
2023-05-19T08:44:54.833Z,14.60
2023-05-19T08:49:05.260Z,14.40
2023-05-19T08:53:33.297Z,15.10
2023-05-19T08:57:38.108Z,15.30
2023-05-19T09:01:45.825Z,15.00
2023-05-19T09:05:48.793Z,15.20
2023-05-19T09:09:50.689Z,15.10
2023-05-19T09:13:52.633Z,14.60
2023-05-19T09:18:12.390Z,14.90
2023-05-19T09:22:16.128Z,15.10
2023-05-19T09:26:18.196Z,15.00
2023-05-19T09:30:21.320Z,15.00
2023-05-19T09:34:24.928Z,15.60
2023-05-19T09:38:29.832Z,15.10
2023-05-19T09:42:37.890Z,15.80
2023-05-19T09:46:48.224Z,15.20
2023-05-19T09:50:51.659Z,15.40
2023-05-19T09:54:55.124Z,15.40
2023-05-19T09:58:57.423Z,15.60
2023-05-19T10:03:01.075Z,15.70
2023-05-19T10:07:05.436Z,16.00
2023-05-19T10:11:07.631Z,16.30
2023-05-19T10:15:11.550Z,16.50
2023-05-19T10:19:14.801Z,16.50
2023-05-19T10:23:16.714Z,16.40
2023-05-19T10:27:19.308Z,16.00
2023-05-19T10:31:23.297Z,16.00
2023-05-19T10:35:43.122Z,16.10
2023-05-19T10:39:45.616Z,16.50
2023-05-19T10:44:24.212Z,16.40
2023-05-19T10:48:26.399Z,16.80
2023-05-19T10:52:30.813Z,16.70
2023-05-19T10:56:36.556Z,16.70
2023-05-19T11:00:40.595Z,16.70
2023-05-19T11:04:53.589Z,16.70
2023-05-19T11:09:10.294Z,17.60
2023-05-19T11:13:22.593Z,17.50
2023-05-19T11:17:25.803Z,17.00
2023-05-19T11:21:55.038Z,17.90
2023-05-19T11:25:56.856Z,17.70
2023-05-19T11:30:01.889Z,18.20
2023-05-19T11:34:06.853Z,18.40
2023-05-19T11:38:08.771Z,18.10
2023-05-19T11:42:11.299Z,17.90
2023-05-19T11:46:13.390Z,17.60
2023-05-19T11:50:16.384Z,17.60
2023-05-19T11:54:19.211Z,18.00
2023-05-19T11:58:26.859Z,17.80
2023-05-19T12:02:30.607Z,18.20
2023-05-19T12:06:33.748Z,18.80
2023-05-19T12:10:35.920Z,17.80
2023-05-19T12:14:38.037Z,17.60
2023-05-19T12:18:42.954Z,18.00
2023-05-19T12:22:45.985Z,18.50
2023-05-19T12:26:50.433Z,18.20
2023-05-19T12:30:53.200Z,18.20
2023-05-19T12:34:58.339Z,18.10
2023-05-19T12:39:00.187Z,18.40
2023-05-19T12:43:02.009Z,18.40
2023-05-19T12:47:07.097Z,18.90
2023-05-19T12:51:09.933Z,18.30
2023-05-19T12:55:13.059Z,18.20
2023-05-19T12:59:30.657Z,18.50
2023-05-19T13:03:42.931Z,18.20
2023-05-19T13:08:00.404Z,18.50
2023-05-19T13:12:02.571Z,18.80
2023-05-19T13:16:04.595Z,19.00
2023-05-19T13:20:07.065Z,19.30
2023-05-19T13:24:09.047Z,19.40
2023-05-19T13:28:11.171Z,19.10
2023-05-19T13:32:12.969Z,19.20
2023-05-19T13:36:14.837Z,18.90
2023-05-19T13:40:17.464Z,18.90
2023-05-19T13:44:19.219Z,18.60
2023-05-19T13:48:21.166Z,18.10
2023-05-19T13:52:23.056Z,18.40
2023-05-19T13:56:24.836Z,18.60
2023-05-19T14:00:26.582Z,18.50
2023-05-19T14:04:29.131Z,18.30
2023-05-19T14:08:30.957Z,19.00
2023-05-19T14:12:41.625Z,19.10
2023-05-19T14:16:49.584Z,18.40
2023-05-19T14:20:51.334Z,18.90
2023-05-19T14:24:53.144Z,19.30
2023-05-19T14:28:56.921Z,18.80
2023-05-19T14:32:58.864Z,19.20
2023-05-19T14:37:02.292Z,19.40
2023-05-19T14:41:04.147Z,19.40
2023-05-19T14:45:06.479Z,19.00
2023-05-19T14:49:08.568Z,18.80
2023-05-19T14:53:10.956Z,19.30
2023-05-19T14:57:12.709Z,19.30
2023-05-19T15:01:14.572Z,19.50
2023-05-19T15:05:17.141Z,19.80
2023-05-19T15:09:18.888Z,19.50
2023-05-19T15:13:21.610Z,19.40
2023-05-19T15:17:23.458Z,19.40
2023-05-19T15:21:25.349Z,18.90
2023-05-19T15:25:27.127Z,19.40
2023-05-19T15:29:28.876Z,19.40
2023-05-19T15:33:30.869Z,19.40
2023-05-19T15:37:32.712Z,19.30
2023-05-19T15:41:34.484Z,19.30
2023-05-19T15:45:36.213Z,19.40
2023-05-19T15:49:38.194Z,19.40
2023-05-19T15:53:40.031Z,19.30
2023-05-19T15:57:41.919Z,19.40
2023-05-19T16:01:43.845Z,19.10
2023-05-19T16:05:45.718Z,19.20
2023-05-19T16:09:47.472Z,19.30
2023-05-19T16:13:49.385Z,19.60
2023-05-19T16:17:51.217Z,19.40
2023-05-19T16:21:53.019Z,19.90
2023-05-19T16:25:54.919Z,19.80
2023-05-19T16:29:56.990Z,20.10
2023-05-19T16:33:58.851Z,19.90
2023-05-19T16:38:00.793Z,19.80
2023-05-19T16:42:03.144Z,20.00
2023-05-19T16:46:05.500Z,19.70
2023-05-19T16:50:07.843Z,19.80
2023-05-19T16:54:09.594Z,20.10
2023-05-19T16:58:11.612Z,20.10
2023-05-19T17:02:13.380Z,20.30
2023-05-19T17:06:15.137Z,20.10
2023-05-19T17:10:17.465Z,20.10
2023-05-19T17:14:19.373Z,20.00
2023-05-19T17:18:21.229Z,20.00
2023-05-19T17:22:23.024Z,20.20
2023-05-19T17:26:24.687Z,19.60
2023-05-19T17:30:26.441Z,19.50
2023-05-19T17:34:28.281Z,19.20
2023-05-19T17:38:32.366Z,18.90
2023-05-19T17:42:34.275Z,18.80
2023-05-19T17:46:38.493Z,18.60
2023-05-19T17:50:40.485Z,18.40
2023-05-19T17:54:42.504Z,18.50
2023-05-19T17:58:46.596Z,18.50
2023-05-19T18:02:48.804Z,18.40
2023-05-19T18:06:52.535Z,18.40
2023-05-19T18:10:57.065Z,18.00
2023-05-19T18:14:59.081Z,18.10
2023-05-19T18:19:00.957Z,17.90
2023-05-19T18:23:03.254Z,17.80
2023-05-19T18:27:05.402Z,17.80
2023-05-19T18:31:15.744Z,17.70
2023-05-19T18:35:17.688Z,17.80
2023-05-19T18:39:19.503Z,18.00
2023-05-19T18:43:21.458Z,17.70
2023-05-19T18:47:23.234Z,17.50
2023-05-19T18:51:24.944Z,17.60
2023-05-19T18:55:26.762Z,17.60
2023-05-19T18:59:28.526Z,17.80
2023-05-19T19:03:30.668Z,17.80
2023-05-19T19:07:32.428Z,17.60
2023-05-19T19:11:34.181Z,17.70
2023-05-19T19:15:36.533Z,17.30
2023-05-19T19:19:38.454Z,17.20
2023-05-19T19:23:40.290Z,17.10
2023-05-19T19:27:42.083Z,16.90
2023-05-19T19:31:43.944Z,16.80
2023-05-19T19:35:46.927Z,16.80
2023-05-19T19:39:48.703Z,16.80
2023-05-19T19:43:51.017Z,16.70
2023-05-19T19:47:52.906Z,16.60
2023-05-19T19:51:54.688Z,16.70
2023-05-19T19:56:04.348Z,16.70
2023-05-19T20:00:09.557Z,16.50
2023-05-19T20:04:11.497Z,16.50
2023-05-19T20:08:14.158Z,16.60
2023-05-19T20:12:17.679Z,16.50
2023-05-19T20:16:19.670Z,16.70
2023-05-19T20:20:21.661Z,16.70
2023-05-19T20:24:23.390Z,16.60
2023-05-19T20:28:25.295Z,16.50
2023-05-19T20:32:27.113Z,16.50
2023-05-19T20:36:28.871Z,16.40
2023-05-19T20:40:30.897Z,16.40
2023-05-19T20:44:32.647Z,16.40
2023-05-19T20:48:34.487Z,16.50
2023-05-19T20:52:36.224Z,16.60
2023-05-19T20:56:37.968Z,16.50
2023-05-19T21:00:39.795Z,16.50
2023-05-19T21:04:41.623Z,16.30
2023-05-19T21:08:43.463Z,16.10
2023-05-19T21:12:46.320Z,16.00
2023-05-19T21:16:49.299Z,15.80
2023-05-19T21:20:51.104Z,15.70
2023-05-19T21:24:53.737Z,15.60
2023-05-19T21:28:55.563Z,15.60
2023-05-19T21:32:57.381Z,15.60
2023-05-19T21:36:59.285Z,15.50
2023-05-19T21:41:01.061Z,15.10
2023-05-19T21:45:02.956Z,14.90
2023-05-19T21:49:06.348Z,15.00
2023-05-19T21:53:08.835Z,15.00
2023-05-19T21:57:13.528Z,14.90
2023-05-19T22:01:15.260Z,14.90
2023-05-19T22:05:17.373Z,14.60
2023-05-19T22:09:19.155Z,14.60
2023-05-19T22:13:21.374Z,14.70
2023-05-19T22:17:23.276Z,14.50
2023-05-19T22:21:25.091Z,14.40
2023-05-19T22:25:27.535Z,14.40
2023-05-19T22:29:29.231Z,14.40
2023-05-19T22:33:31.244Z,14.30
2023-05-19T22:37:33.108Z,14.20
2023-05-19T22:41:34.860Z,14.00
2023-05-19T22:45:36.966Z,14.00
2023-05-19T22:49:42.554Z,13.90
2023-05-19T22:53:46.543Z,13.80
2023-05-19T22:57:48.340Z,13.70
2023-05-19T23:01:50.102Z,13.60
2023-05-19T23:05:53.228Z,13.60
2023-05-19T23:09:54.967Z,13.20
2023-05-19T23:13:56.894Z,13.20
2023-05-19T23:17:58.655Z,13.10
2023-05-19T23:22:00.791Z,13.00
2023-05-19T23:26:03.152Z,13.00
2023-05-19T23:30:05.451Z,12.60
2023-05-19T23:34:07.554Z,11.70
2023-05-19T23:38:09.263Z,11.90
2023-05-19T23:42:11.169Z,11.90
2023-05-19T23:46:13.089Z,12.00
2023-05-19T23:50:14.885Z,11.90
2023-05-19T23:54:16.851Z,11.80
2023-05-19T23:58:18.737Z,11.60
